LTAG/ADF METAR and TAF weather

Enter ICAO airport designator
Station Type Date Time Source
LTAG METAR 2019/06/19 02:50 UTC NOAA

LTAG 190250Z 00000KT 9999 SCT030 21/19 Q1008 NOSIG


Station Type Date Time Source
LTAG Decoded METAR 2019/06/19 02:50 UTC NOAA

Adana / Incirlik, Turkey (LTAG) 37-00N 035-25E 66M
Jun 18, 2019 - 10:50 PM EDT / 2019.06.19 0250 UTC
Wind: Calm:0
Visibility: greater than 7 mile(s):0
Sky conditions: partly cloudy
Temperature: 69 F (21 C)
Dew Point: 66 F (19 C)
Relative Humidity: 88%
Pressure (altimeter): 29.77 in. Hg (1008 hPa)
ob: LTAG 190250Z 00000KT 9999 SCT030 21/19 Q1008 NOSIG
cycle: 3

Station Type Date Time Source
LTAG TAF 2019/06/18 18:03 UTC NOAA

TAF TAF LTAG 181640Z 1818/1918 VRB02KT 9999 SCT035
TEMPO 1910/1914 21015G25KT -TSRA FEW025CB BKN030

Example: see airport list